Time;durP1;ratioP1;P1;durP2;ratioP2;P2;SDS_P1;SDS_P2;PMS_P1;PMS_P2;Temp;Humidity;BMP_temperature;BMP_pressure;BME280_temperature;BME280_humidity;BME280_pressure;Samples;Min_cycle;Max_cycle;Signal;HPM_P1;HPM_P2
2024/03/03 00:01:37;;;;;;;12.35;8.13;;;4.00;99.90;;;;;;5054731;28;20526;-64
2024/03/03 00:04:03;;;;;;;12.77;7.68;;;4.00;99.90;;;;;;5054842;28;20112;-64
2024/03/03 00:06:32;;;;;;;13.55;7.30;;;3.90;99.90;;;;;;5053347;28;20075;-64
2024/03/03 00:08:58;;;;;;;10.48;7.10;;;3.90;99.90;;;;;;5054418;28;20041;-64
2024/03/03 00:11:25;;;;;;;10.88;7.32;;;3.90;99.90;;;;;;5053508;28;20048;-63
2024/03/03 00:13:52;;;;;;;12.95;8.57;;;3.90;99.90;;;;;;5054488;28;20036;-64
2024/03/03 00:16:19;;;;;;;15.80;10.00;;;3.80;99.90;;;;;;5041966;28;20132;-63
2024/03/03 00:18:46;;;;;;;20.27;10.93;;;3.80;99.90;;;;;;5022231;28;20040;-64
2024/03/03 00:21:16;;;;;;;19.85;10.00;;;3.80;99.90;;;;;;5023441;28;20042;-64
2024/03/03 00:23:43;;;;;;;13.32;7.82;;;3.80;99.90;;;;;;5017310;28;20046;-66
2024/03/03 00:26:09;;;;;;;12.05;7.68;;;3.80;99.90;;;;;;5014482;28;20491;-66
2024/03/03 00:28:36;;;;;;;14.70;7.68;;;3.80;99.90;;;;;;5014776;28;20069;-66
2024/03/03 00:31:03;;;;;;;15.50;8.13;;;3.70;99.90;;;;;;5013387;28;20049;-66
2024/03/03 00:33:30;;;;;;;16.45;9.23;;;3.70;99.90;;;;;;5014403;28;20050;-66
2024/03/03 00:35:57;;;;;;;12.50;7.60;;;3.70;99.90;;;;;;5014071;28;20042;-66
2024/03/03 00:38:23;;;;;;;11.85;7.75;;;3.70;99.90;;;;;;5014318;28;20045;-66
2024/03/03 00:40:50;;;;;;;11.77;6.68;;;3.70;99.90;;;;;;5013092;28;20037;-66
2024/03/03 00:43:17;;;;;;;11.82;6.88;;;3.70;99.90;;;;;;5013161;28;20042;-66
2024/03/03 00:45:44;;;;;;;9.77;6.68;;;3.70;99.90;;;;;;5013284;28;20483;-66
2024/03/03 00:48:11;;;;;;;13.27;6.72;;;3.60;99.90;;;;;;5013259;28;20053;-66
2024/03/03 00:50:37;;;;;;;10.82;5.97;;;3.60;99.90;;;;;;5013146;28;20049;-66
2024/03/03 00:53:04;;;;;;;10.13;5.72;;;3.60;99.90;;;;;;5013146;28;20511;-66
2024/03/03 00:55:31;;;;;;;13.40;5.68;;;3.60;99.90;;;;;;5012771;28;20045;-66
2024/03/03 00:57:58;;;;;;;12.02;5.75;;;3.60;99.90;;;;;;5014077;28;20072;-66
2024/03/03 01:00:25;;;;;;;9.13;5.50;;;3.60;99.90;;;;;;5014116;28;20038;-66
2024/03/03 01:02:52;;;;;;;9.50;5.28;;;3.50;99.90;;;;;;5012715;28;20041;-65
2024/03/03 01:05:19;;;;;;;8.35;5.50;;;3.50;99.90;;;;;;5014038;28;20057;-66
2024/03/03 01:07:45;;;;;;;13.50;6.65;;;3.50;99.90;;;;;;5013010;28;20065;-65
2024/03/03 01:10:12;;;;;;;9.50;6.00;;;3.50;99.90;;;;;;5013698;28;20521;-66
2024/03/03 01:12:39;;;;;;;11.45;5.95;;;3.50;99.90;;;;;;5014255;28;20470;-66
2024/03/03 01:15:06;;;;;;;8.52;5.47;;;3.50;99.90;;;;;;5013649;28;20078;-65
2024/03/03 01:17:33;;;;;;;7.15;5.18;;;3.50;99.90;;;;;;5013785;28;20049;-65
2024/03/03 01:20:00;;;;;;;10.32;5.88;;;3.50;99.90;;;;;;5013996;28;20037;-65
2024/03/03 01:22:27;;;;;;;8.63;5.90;;;3.40;99.90;;;;;;5012596;28;20419;-65
2024/03/03 01:24:54;;;;;;;10.68;5.35;;;3.40;99.90;;;;;;5012725;28;20042;-65
2024/03/03 01:27:21;;;;;;;8.75;4.97;;;3.30;99.90;;;;;;5012626;28;20503;-65
2024/03/03 01:29:47;;;;;;;7.65;4.70;;;3.30;99.90;;;;;;5012477;28;20048;-65
2024/03/03 01:32:14;;;;;;;9.38;5.70;;;3.30;99.90;;;;;;5012735;28;20049;-65
2024/03/03 01:34:41;;;;;;;8.57;4.95;;;3.30;99.90;;;;;;5013498;28;20049;-65
2024/03/03 01:37:08;;;;;;;7.07;4.30;;;3.20;99.90;;;;;;5012209;28;20057;-65
2024/03/03 01:39:38;;;;;;;12.15;5.03;;;3.20;99.90;;;;;;5012317;28;20042;-65
2024/03/03 01:42:08;;;;;;;9.77;4.05;;;3.20;99.90;;;;;;5013486;28;20044;-65
2024/03/03 01:44:34;;;;;;;8.73;4.00;;;3.20;99.90;;;;;;5012284;28;20077;-65
2024/03/03 01:47:01;;;;;;;7.88;3.92;;;3.20;99.90;;;;;;5013402;28;20466;-65
2024/03/03 01:49:28;;;;;;;5.85;3.20;;;3.10;99.90;;;;;;5012291;28;20384;-65
2024/03/03 01:51:55;;;;;;;6.32;3.60;;;3.10;99.90;;;;;;5013571;28;20042;-65
2024/03/03 01:54:21;;;;;;;7.13;3.38;;;3.10;99.90;;;;;;5012121;28;20042;-65
2024/03/03 01:56:48;;;;;;;9.50;3.38;;;3.10;99.90;;;;;;5012025;28;20042;-65
2024/03/03 01:59:15;;;;;;;8.43;3.95;;;3.10;99.90;;;;;;5014242;28;20038;-65
2024/03/03 02:01:42;;;;;;;6.75;3.17;;;3.00;99.90;;;;;;5015686;28;20096;-65
2024/03/03 02:04:09;;;;;;;7.50;3.00;;;3.00;99.90;;;;;;5016250;28;20066;-65
2024/03/03 02:06:35;;;;;;;5.82;3.35;;;3.00;99.90;;;;;;5016985;28;20042;-65
2024/03/03 02:09:02;;;;;;;6.57;3.35;;;3.00;99.90;;;;;;5016905;28;20069;-65
2024/03/03 02:11:29;;;;;;;7.45;3.72;;;2.90;99.90;;;;;;5015572;28;20108;-65
2024/03/03 02:13:57;;;;;;;4.57;3.50;;;2.90;99.90;;;;;;5015293;28;20124;-65
2024/03/03 02:16:25;;;;;;;6.10;3.20;;;2.90;99.90;;;;;;5015268;28;20057;-65
2024/03/03 02:18:51;;;;;;;4.75;3.20;;;2.90;99.90;;;;;;5016741;28;20383;-65
2024/03/03 02:21:18;;;;;;;6.72;3.35;;;2.90;99.90;;;;;;5017198;28;20042;-65
2024/03/03 02:23:45;;;;;;;5.32;3.53;;;2.90;99.90;;;;;;5016439;28;20484;-65
2024/03/03 02:26:12;;;;;;;7.90;3.17;;;2.90;99.90;;;;;;5015711;28;20464;-65
2024/03/03 02:28:41;;;;;;;7.07;3.70;;;2.80;99.90;;;;;;5017162;28;20048;-65
2024/03/03 02:31:08;;;;;;;5.82;3.10;;;2.80;99.90;;;;;;5015697;28;20137;-65
2024/03/03 02:33:35;;;;;;;4.88;2.75;;;2.80;99.90;;;;;;5015870;28;20073;-65
2024/03/03 02:36:02;;;;;;;7.85;3.53;;;2.80;99.90;;;;;;5015443;28;20406;-65
2024/03/03 02:38:29;;;;;;;8.02;3.25;;;2.80;99.90;;;;;;5016677;28;20038;-65
2024/03/03 02:40:55;;;;;;;6.38;3.00;;;2.80;99.90;;;;;;5015410;28;20046;-65
2024/03/03 02:43:22;;;;;;;5.50;2.97;;;2.80;99.90;;;;;;5016018;28;20042;-65
2024/03/03 02:45:49;;;;;;;4.53;2.72;;;2.80;99.90;;;;;;5016532;28;20034;-65
2024/03/03 02:48:16;;;;;;;9.18;3.22;;;2.70;99.90;;;;;;5014820;28;20137;-64
2024/03/03 02:50:42;;;;;;;5.30;3.03;;;2.70;99.90;;;;;;5016434;28;20199;-64
2024/03/03 02:53:09;;;;;;;5.60;3.13;;;2.70;99.90;;;;;;5014863;28;20046;-65
2024/03/03 02:55:36;;;;;;;4.20;2.65;;;2.80;99.90;;;;;;5015945;28;20045;-65
2024/03/03 02:58:03;;;;;;;4.22;2.72;;;2.70;99.90;;;;;;5015906;28;20115;-65
2024/03/03 03:00:30;;;;;;;5.80;2.90;;;2.70;99.90;;;;;;5015070;28;20100;-65
2024/03/03 03:02:57;;;;;;;4.03;2.75;;;2.60;99.90;;;;;;5014857;28;20034;-65
2024/03/03 03:05:24;;;;;;;5.57;2.80;;;2.60;99.90;;;;;;5016028;28;20061;-64
2024/03/03 03:07:50;;;;;;;4.78;3.13;;;2.70;99.90;;;;;;5014323;28;20046;-65
2024/03/03 03:10:17;;;;;;;5.72;2.95;;;2.60;99.90;;;;;;5016112;28;20138;-65
2024/03/03 03:12:44;;;;;;;7.13;2.88;;;2.60;99.90;;;;;;5015766;28;20499;-65
2024/03/03 03:15:11;;;;;;;4.63;2.88;;;2.60;99.90;;;;;;5015351;28;20475;-65
2024/03/03 03:17:38;;;;;;;4.63;3.10;;;2.60;99.90;;;;;;5015422;28;20446;-65
2024/03/03 03:20:05;;;;;;;4.32;2.85;;;2.60;99.90;;;;;;5014399;28;20049;-65
2024/03/03 03:22:32;;;;;;;5.28;2.60;;;2.60;99.90;;;;;;5015955;28;20038;-65
2024/03/03 03:24:58;;;;;;;8.40;3.00;;;2.60;99.90;;;;;;5015685;28;20038;-65
2024/03/03 03:27:25;;;;;;;5.65;3.15;;;2.60;99.90;;;;;;5015602;28;20125;-65
2024/03/03 03:29:52;;;;;;;5.88;2.90;;;2.60;99.90;;;;;;5015489;28;20045;-64
2024/03/03 03:32:19;;;;;;;5.80;2.90;;;2.60;99.90;;;;;;5015438;28;20506;-65
2024/03/03 03:34:46;;;;;;;6.85;3.30;;;2.60;99.90;;;;;;5015979;28;20042;-65
2024/03/03 03:37:13;;;;;;;4.63;2.60;;;2.60;99.90;;;;;;5014909;28;20089;-64
2024/03/03 03:39:39;;;;;;;5.00;2.97;;;2.60;99.90;;;;;;5015390;28;20076;-65
2024/03/03 03:42:06;;;;;;;6.78;3.42;;;2.60;99.90;;;;;;5015117;28;20049;-64
2024/03/03 03:44:33;;;;;;;5.90;2.92;;;2.50;99.90;;;;;;5015169;28;20042;-65
2024/03/03 03:47:00;;;;;;;5.22;2.80;;;2.50;99.90;;;;;;5014730;28;20041;-65
2024/03/03 03:49:28;;;;;;;6.32;3.05;;;2.50;99.90;;;;;;5014988;28;20103;-65
2024/03/03 03:51:55;;;;;;;4.93;2.80;;;2.50;99.90;;;;;;5014286;28;20378;-65
2024/03/03 03:54:22;;;;;;;7.78;3.90;;;2.50;99.90;;;;;;5014846;28;20042;-65
2024/03/03 03:56:49;;;;;;;5.05;3.00;;;2.50;99.90;;;;;;5014673;28;20038;-65
2024/03/03 03:59:15;;;;;;;5.97;2.92;;;2.50;99.90;;;;;;5013687;28;20475;-65
2024/03/03 04:01:42;;;;;;;4.93;3.00;;;2.50;99.90;;;;;;5014546;28;20038;-64
2024/03/03 04:04:10;;;;;;;4.70;2.88;;;2.50;99.90;;;;;;5014766;28;20418;-65
2024/03/03 04:06:37;;;;;;;4.88;2.70;;;2.50;99.90;;;;;;5015127;28;20108;-64
2024/03/03 04:09:04;;;;;;;5.85;3.28;;;2.40;99.90;;;;;;5014518;28;20042;-65
2024/03/03 04:11:31;;;;;;;6.13;2.97;;;2.40;99.90;;;;;;5015160;28;20092;-65
2024/03/03 04:13:58;;;;;;;5.43;2.85;;;2.40;99.90;;;;;;5015037;28;20361;-64
2024/03/03 04:16:25;;;;;;;4.35;2.63;;;2.30;99.90;;;;;;5014492;28;20049;-65
2024/03/03 04:18:52;;;;;;;4.15;2.88;;;2.40;99.90;;;;;;5014852;28;20045;-65
2024/03/03 04:21:18;;;;;;;4.57;2.63;;;2.30;99.90;;;;;;5014181;28;20038;-65
2024/03/03 04:23:45;;;;;;;5.68;3.10;;;2.30;99.90;;;;;;5014754;28;20041;-65
2024/03/03 04:26:12;;;;;;;6.38;3.10;;;2.30;99.90;;;;;;5014564;28;20045;-64
2024/03/03 04:28:39;;;;;;;4.88;2.95;;;2.20;99.90;;;;;;5014666;28;20054;-65
2024/03/03 04:31:05;;;;;;;5.43;3.20;;;2.30;99.90;;;;;;5014438;28;20108;-65
2024/03/03 04:33:32;;;;;;;9.77;3.38;;;2.30;99.90;;;;;;5014785;28;20045;-65
2024/03/03 04:35:59;;;;;;;7.40;3.10;;;2.30;99.90;;;;;;5014118;28;20061;-64
2024/03/03 04:38:26;;;;;;;5.13;3.20;;;2.20;99.90;;;;;;5012935;28;20038;-64
2024/03/03 04:40:53;;;;;;;4.30;2.70;;;2.20;99.90;;;;;;5014614;28;20088;-65
2024/03/03 04:43:19;;;;;;;7.05;3.22;;;2.20;99.90;;;;;;5014280;28;20065;-65
2024/03/03 04:45:46;;;;;;;7.05;3.17;;;2.20;99.90;;;;;;5014333;28;20423;-65
2024/03/03 04:48:13;;;;;;;5.72;3.17;;;2.20;99.90;;;;;;5014370;28;20057;-65
2024/03/03 04:50:40;;;;;;;7.53;3.15;;;2.20;99.90;;;;;;5014290;28;20061;-64
2024/03/03 04:53:07;;;;;;;6.32;3.38;;;2.20;99.90;;;;;;5012584;28;20477;-65
2024/03/03 04:55:33;;;;;;;6.70;3.00;;;2.20;99.90;;;;;;5014151;28;20096;-65
2024/03/03 04:58:00;;;;;;;5.28;2.80;;;2.20;99.90;;;;;;5013833;28;20128;-64
2024/03/03 05:00:27;;;;;;;5.53;2.70;;;2.20;99.90;;;;;;5013966;28;20040;-65
2024/03/03 05:02:54;;;;;;;3.80;2.70;;;2.20;99.90;;;;;;5014380;28;20494;-64
2024/03/03 05:05:20;;;;;;;5.82;3.17;;;2.20;99.90;;;;;;5013726;28;20100;-64
2024/03/03 05:07:47;;;;;;;7.05;3.58;;;2.10;99.90;;;;;;5013820;28;20494;-65
2024/03/03 05:10:14;;;;;;;4.75;2.65;;;2.10;99.90;;;;;;5014019;28;20046;-65
2024/03/03 05:12:41;;;;;;;5.22;2.50;;;2.10;99.90;;;;;;5014171;28;20053;-64
2024/03/03 05:15:08;;;;;;;4.78;2.30;;;2.10;99.90;;;;;;5013840;28;20487;-64
2024/03/03 05:17:34;;;;;;;5.47;2.30;;;2.10;99.90;;;;;;5013868;28;20053;-65
2024/03/03 05:20:02;;;;;;;6.32;2.83;;;2.00;99.90;;;;;;5013848;28;20038;-65
2024/03/03 05:22:29;;;;;;;4.53;2.53;;;2.10;99.90;;;;;;5013946;28;20387;-65
2024/03/03 05:24:56;;;;;;;4.25;2.53;;;2.10;99.90;;;;;;5013563;28;20044;-67
2024/03/03 05:27:23;;;;;;;3.83;2.25;;;2.10;99.90;;;;;;5013622;28;20062;-65
2024/03/03 05:29:51;;;;;;;7.18;2.75;;;2.10;99.90;;;;;;5014044;28;20434;-65
2024/03/03 05:32:18;;;;;;;5.93;2.65;;;2.10;99.90;;;;;;5013446;28;20100;-65
2024/03/03 05:34:44;;;;;;;4.68;2.63;;;2.10;99.90;;;;;;5014843;28;20041;-65
2024/03/03 05:37:11;;;;;;;5.47;2.65;;;2.10;99.90;;;;;;5017752;28;20542;-64
2024/03/03 05:39:39;;;;;;;6.50;2.60;;;2.10;99.90;;;;;;5017800;28;20080;-65
2024/03/03 05:42:06;;;;;;;6.20;2.85;;;2.10;99.90;;;;;;5016517;28;20042;-65
2024/03/03 05:44:33;;;;;;;4.45;2.38;;;2.10;99.90;;;;;;5017988;28;20041;-65
2024/03/03 05:47:02;;;;;;;5.30;2.63;;;2.10;99.90;;;;;;5016038;28;20475;-65
2024/03/03 05:49:29;;;;;;;5.00;2.80;;;2.10;99.90;;;;;;5017355;28;20046;-65
2024/03/03 05:51:55;;;;;;;6.90;3.03;;;2.00;99.90;;;;;;5017294;28;20398;-65
2024/03/03 05:54:22;;;;;;;6.70;2.55;;;2.00;99.90;;;;;;5017647;28;20042;-64
2024/03/03 05:56:49;;;;;;;4.63;3.10;;;2.00;99.90;;;;;;5017282;28;20073;-65
2024/03/03 05:59:16;;;;;;;3.58;2.58;;;2.00;99.90;;;;;;5016765;28;20042;-65
2024/03/03 06:01:48;;;;;;;4.80;2.75;;;2.00;99.90;;;;;;5016860;28;20052;-65
2024/03/03 06:04:16;;;;;;;8.23;3.30;;;2.00;99.90;;;;;;5016813;28;20048;-65
2024/03/03 06:06:43;;;;;;;4.65;2.80;;;1.90;99.90;;;;;;5017165;28;20490;-65
2024/03/03 06:09:11;;;;;;;4.47;3.05;;;1.90;99.90;;;;;;5015646;28;20050;-65
2024/03/03 06:11:38;;;;;;;6.03;3.45;;;1.90;99.90;;;;;;5017301;28;20375;-65
2024/03/03 06:14:05;;;;;;;5.32;3.10;;;1.90;99.90;;;;;;5016819;28;20038;-65
2024/03/03 06:16:31;;;;;;;5.20;2.92;;;1.90;99.90;;;;;;5016885;28;20064;-65
2024/03/03 06:18:58;;;;;;;7.20;3.20;;;1.90;99.90;;;;;;5016800;28;20042;-64
2024/03/03 06:21:25;;;;;;;5.78;3.45;;;1.90;99.90;;;;;;5017224;28;20124;-65
2024/03/03 06:23:52;;;;;;;6.38;3.90;;;1.90;99.90;;;;;;5016671;28;20037;-65
2024/03/03 06:26:19;;;;;;;5.47;3.30;;;1.90;99.90;;;;;;5016881;28;20057;-64
2024/03/03 06:28:45;;;;;;;6.03;3.75;;;1.80;99.90;;;;;;5016956;28;20094;-64
2024/03/03 06:31:12;;;;;;;7.32;3.83;;;1.80;99.90;;;;;;5016736;28;20041;-65
2024/03/03 06:33:39;;;;;;;6.18;3.70;;;1.80;99.90;;;;;;5016373;28;20074;-64
2024/03/03 06:36:06;;;;;;;7.63;4.60;;;1.80;99.90;;;;;;5016885;28;20060;-64
2024/03/03 06:38:33;;;;;;;7.60;4.20;;;1.70;99.90;;;;;;5016754;28;20042;-65
2024/03/03 06:41:00;;;;;;;7.45;4.10;;;1.70;99.90;;;;;;5016319;28;20085;-65
2024/03/03 06:43:26;;;;;;;9.70;4.63;;;1.70;99.90;;;;;;5016328;28;20042;-64
2024/03/03 06:45:53;;;;;;;5.10;3.53;;;1.70;99.90;;;;;;5016207;28;20042;-65
2024/03/03 06:48:20;;;;;;;8.23;4.15;;;1.70;99.90;;;;;;5016533;28;20066;-64
2024/03/03 06:50:47;;;;;;;8.63;4.63;;;1.60;99.90;;;;;;5017066;28;20042;-65
2024/03/03 06:53:14;;;;;;;9.45;5.20;;;1.60;99.90;;;;;;5016168;28;20088;-65
2024/03/03 06:55:40;;;;;;;10.15;5.47;;;1.60;99.90;;;;;;5016986;28;20395;-64
2024/03/03 06:58:08;;;;;;;9.10;5.07;;;1.60;99.90;;;;;;5017035;28;20045;-65
2024/03/03 07:00:35;;;;;;;10.68;5.32;;;1.70;99.90;;;;;;5016414;28;20099;-65
2024/03/03 07:05:34;;;;;;;8.00;5.15;;;1.70;99.90;;;;;;5017257;28;20463;-65
2024/03/03 07:08:02;;;;;;;7.20;4.88;;;1.70;99.90;;;;;;5016989;28;20084;-64
2024/03/03 07:10:31;;;;;;;9.27;5.55;;;1.80;99.90;;;;;;5017298;28;20045;-64
2024/03/03 07:12:58;;;;;;;7.53;4.18;;;1.80;99.90;;;;;;5016222;28;20108;-65
2024/03/03 07:15:25;;;;;;;6.70;4.00;;;1.80;99.90;;;;;;5015565;28;20072;-64
2024/03/03 07:17:52;;;;;;;5.38;3.47;;;1.80;99.90;;;;;;5016094;28;20076;-64
2024/03/03 07:20:19;;;;;;;6.43;3.72;;;1.80;99.90;;;;;;5014967;28;20463;-64
2024/03/03 07:22:45;;;;;;;10.93;3.85;;;1.80;99.90;;;;;;5015353;28;20120;-64
2024/03/03 07:25:14;;;;;;;5.50;3.75;;;1.80;99.90;;;;;;5015437;28;20066;-64
2024/03/03 07:27:40;;;;;;;10.10;3.97;;;1.80;99.90;;;;;;5015630;28;20453;-63
2024/03/03 07:30:07;;;;;;;6.25;3.65;;;1.80;99.90;;;;;;5015661;28;20124;-63
2024/03/03 07:32:38;;;;;;;6.20;3.85;;;1.80;99.90;;;;;;5015313;28;20467;-63
2024/03/03 07:35:05;;;;;;;5.57;3.55;;;1.80;99.90;;;;;;5015334;28;20133;-63
2024/03/03 07:37:31;;;;;;;8.63;4.30;;;1.80;99.90;;;;;;5015563;28;20096;-63
2024/03/03 07:40:04;;;;;;;5.80;3.97;;;1.90;99.90;;;;;;5015613;28;20046;-63
2024/03/03 07:42:32;;;;;;;5.63;3.83;;;1.90;99.90;;;;;;5014978;28;20061;-64
2024/03/03 07:44:59;;;;;;;5.88;3.65;;;1.90;99.90;;;;;;5014163;28;20038;-64
2024/03/03 07:47:25;;;;;;;8.35;3.90;;;1.90;99.90;;;;;;5015565;28;20428;-65
2024/03/03 07:49:53;;;;;;;6.32;4.38;;;2.00;99.90;;;;;;5015118;28;20049;-65
2024/03/03 07:52:20;;;;;;;7.75;4.20;;;2.00;99.90;;;;;;5015060;28;20100;-64
2024/03/03 07:54:47;;;;;;;6.85;4.05;;;2.10;99.90;;;;;;5015111;28;20049;-64
2024/03/03 07:57:14;;;;;;;10.05;4.35;;;2.00;99.90;;;;;;5013895;28;20044;-65
2024/03/03 07:59:41;;;;;;;9.07;4.45;;;2.10;99.90;;;;;;5015250;28;20491;-64
2024/03/03 08:02:08;;;;;;;7.80;4.72;;;2.10;99.90;;;;;;5015222;28;20038;-64
2024/03/03 08:04:35;;;;;;;6.60;4.25;;;2.20;99.90;;;;;;5014557;28;20053;-64
2024/03/03 08:07:03;;;;;;;7.35;4.18;;;2.20;99.90;;;;;;5013256;28;20100;-64
2024/03/03 08:09:30;;;;;;;7.15;4.47;;;2.20;99.90;;;;;;5014950;28;20438;-64
2024/03/03 08:11:57;;;;;;;5.93;4.40;;;2.30;99.90;;;;;;5014820;28;20077;-65
2024/03/03 08:14:24;;;;;;;5.88;4.25;;;2.30;99.90;;;;;;5014352;28;20048;-64
2024/03/03 08:16:51;;;;;;;6.50;4.65;;;2.40;99.90;;;;;;5014829;28;20046;-64
2024/03/03 08:19:17;;;;;;;8.30;4.57;;;2.40;99.90;;;;;;5013329;28;20038;-65
2024/03/03 08:21:44;;;;;;;7.05;4.53;;;2.50;99.90;;;;;;5014992;28;20030;-64
2024/03/03 08:24:11;;;;;;;9.73;5.65;;;2.50;99.90;;;;;;5014308;28;20451;-65
2024/03/03 08:26:38;;;;;;;8.38;5.07;;;2.60;99.90;;;;;;5014105;28;20109;-65
2024/03/03 08:29:05;;;;;;;6.65;4.50;;;2.70;99.90;;;;;;5014299;28;20042;-64
2024/03/03 08:31:35;;;;;;;6.70;4.57;;;2.70;99.90;;;;;;5014694;28;20112;-64
2024/03/03 08:34:03;;;;;;;9.32;5.07;;;2.80;99.90;;;;;;5014564;28;20487;-64
2024/03/03 08:36:30;;;;;;;8.23;4.82;;;2.90;99.90;;;;;;5014615;28;20447;-66
2024/03/03 08:38:57;;;;;;;9.02;4.63;;;3.00;99.90;;;;;;5014049;28;20049;-64
2024/03/03 08:41:24;;;;;;;7.55;4.82;;;3.00;99.90;;;;;;5014050;28;20044;-65
2024/03/03 08:43:51;;;;;;;6.03;4.60;;;3.10;99.90;;;;;;5014240;28;20137;-65
2024/03/03 08:46:18;;;;;;;8.35;4.43;;;3.20;99.90;;;;;;5013912;28;20038;-64
2024/03/03 08:48:44;;;;;;;8.07;4.05;;;3.30;99.90;;;;;;5014283;28;20037;-65
2024/03/03 08:51:11;;;;;;;6.45;4.05;;;3.40;99.90;;;;;;5014345;28;20046;-65
2024/03/03 08:53:38;;;;;;;8.68;4.25;;;3.50;99.90;;;;;;5013898;28;20487;-64
2024/03/03 08:56:05;;;;;;;5.47;4.05;;;3.50;99.90;;;;;;5013988;28;20538;-64
2024/03/03 08:58:32;;;;;;;6.88;4.60;;;3.60;99.90;;;;;;5013820;28;20049;-65
2024/03/03 09:00:58;;;;;;;7.72;4.57;;;3.60;99.90;;;;;;5014161;28;20044;-66
2024/03/03 09:03:26;;;;;;;7.53;4.25;;;3.70;99.90;;;;;;5013709;28;20137;-64
2024/03/03 09:05:53;;;;;;;7.75;4.45;;;3.80;99.90;;;;;;5013605;28;20147;-65
2024/03/03 09:08:20;;;;;;;7.78;4.30;;;3.80;99.90;;;;;;5013873;28;20042;-64
2024/03/03 09:10:47;;;;;;;5.95;4.25;;;3.80;99.90;;;;;;5012705;28;20084;-65
2024/03/03 09:13:13;;;;;;;11.63;4.45;;;3.90;99.90;;;;;;5013497;28;20503;-64
2024/03/03 09:15:40;;;;;;;7.50;4.07;;;4.00;99.90;;;;;;5013620;28;20064;-64
2024/03/03 09:18:07;;;;;;;8.70;4.32;;;4.00;99.90;;;;;;5013612;28;20046;-65
2024/03/03 09:20:34;;;;;;;8.43;4.40;;;4.10;99.90;;;;;;5013849;28;20034;-65
2024/03/03 09:23:01;;;;;;;9.77;4.43;;;4.10;99.90;;;;;;5012959;28;20371;-65
2024/03/03 09:25:27;;;;;;;7.22;4.47;;;4.20;99.90;;;;;;5013392;28;20483;-66
2024/03/03 09:27:54;;;;;;;8.90;4.07;;;4.30;99.90;;;;;;5013876;28;20066;-65
2024/03/03 09:30:21;;;;;;;9.10;4.25;;;4.30;99.90;;;;;;5013982;28;20435;-66
2024/03/03 09:32:51;;;;;;;8.38;4.32;;;4.40;99.90;;;;;;5013615;28;20483;-63
2024/03/03 09:35:18;;;;;;;9.05;4.22;;;4.40;99.90;;;;;;5013724;28;20050;-63
2024/03/03 09:37:45;;;;;;;7.93;4.78;;;4.50;99.90;;;;;;5013967;28;20038;-63
2024/03/03 09:40:12;;;;;;;8.85;4.10;;;4.60;99.90;;;;;;5013214;28;20494;-63
2024/03/03 09:42:39;;;;;;;13.23;4.57;;;4.70;99.90;;;;;;5013616;28;20049;-63
2024/03/03 09:45:06;;;;;;;7.28;3.88;;;4.80;99.90;;;;;;5013403;28;20046;-64
2024/03/03 09:47:34;;;;;;;7.32;4.20;;;4.80;99.90;;;;;;5013975;28;20371;-64
2024/03/03 09:50:00;;;;;;;6.35;4.00;;;4.90;99.90;;;;;;5013475;28;20050;-64
2024/03/03 09:52:27;;;;;;;10.02;3.90;;;4.80;99.90;;;;;;5013135;28;20080;-64
2024/03/03 09:54:55;;;;;;;6.47;4.15;;;4.80;99.90;;;;;;5013410;28;20054;-64
2024/03/03 09:57:22;;;;;;;5.78;3.80;;;4.90;99.90;;;;;;5013321;28;20041;-63
2024/03/03 09:59:52;;;;;;;5.72;3.88;;;4.90;99.90;;;;;;5013254;28;20044;-63
2024/03/03 10:02:19;;;;;;;7.35;3.85;;;4.90;99.90;;;;;;5012363;28;20046;-63
2024/03/03 10:04:50;;;;;;;8.95;4.25;;;4.90;99.90;;;;;;5013723;28;20041;-63
2024/03/03 10:07:17;;;;;;;7.88;4.50;;;4.90;99.90;;;;;;5013667;28;20045;-64
2024/03/03 10:09:43;;;;;;;8.85;4.68;;;5.00;99.90;;;;;;5013352;28;20050;-64
2024/03/03 10:12:10;;;;;;;7.13;4.07;;;5.00;99.90;;;;;;5013284;28;20048;-63
2024/03/03 10:14:37;;;;;;;9.52;4.50;;;5.10;99.90;;;;;;5013312;28;20108;-64
2024/03/03 10:17:05;;;;;;;7.85;3.97;;;5.10;99.90;;;;;;5013122;28;20045;-63
2024/03/03 10:19:32;;;;;;;9.25;4.43;;;5.20;99.90;;;;;;5013997;28;20092;-64
2024/03/03 10:21:59;;;;;;;8.00;3.67;;;5.30;99.90;;;;;;5016658;28;20042;-64
2024/03/03 10:24:26;;;;;;;6.55;4.13;;;5.30;99.90;;;;;;5032038;28;20159;-64
2024/03/03 10:26:53;;;;;;;5.82;3.80;;;5.40;99.90;;;;;;5044568;28;20042;-64
2024/03/03 10:29:19;;;;;;;6.10;3.15;;;5.50;99.90;;;;;;5056371;28;20389;-64
2024/03/03 10:31:46;;;;;;;9.05;3.67;;;5.50;99.90;;;;;;5055980;28;20064;-64
2024/03/03 10:34:14;;;;;;;8.10;3.92;;;5.60;99.90;;;;;;5039159;28;20069;-64
2024/03/03 10:36:41;;;;;;;6.40;3.85;;;5.60;99.90;;;;;;5035801;28;20076;-66
2024/03/03 10:39:11;;;;;;;9.43;4.25;;;5.70;99.90;;;;;;5036580;28;20510;-66
2024/03/03 10:41:38;;;;;;;10.07;4.38;;;5.70;99.90;;;;;;5041189;28;20045;-66
2024/03/03 10:44:05;;;;;;;11.55;4.03;;;5.70;99.90;;;;;;5040418;28;20071;-66
2024/03/03 10:46:32;;;;;;;9.93;4.30;;;5.70;99.90;;;;;;5035941;28;20034;-66
2024/03/03 10:49:00;;;;;;;7.63;4.40;;;5.70;99.90;;;;;;5033982;28;20405;-66
2024/03/03 10:51:26;;;;;;;9.07;4.20;;;5.90;99.90;;;;;;5037742;28;20065;-66
2024/03/03 10:53:53;;;;;;;8.77;4.40;;;5.90;99.90;;;;;;5033367;28;20044;-65
2024/03/03 10:56:20;;;;;;;8.70;4.40;;;5.90;99.90;;;;;;5028883;28;20407;-66
2024/03/03 10:58:47;;;;;;;8.73;4.40;;;5.90;99.90;;;;;;5030948;28;20498;-65
2024/03/03 11:01:14;;;;;;;7.45;4.20;;;6.00;99.90;;;;;;5035110;28;20041;-65
2024/03/03 11:03:41;;;;;;;7.13;4.35;;;6.10;99.90;;;;;;5035396;28;20482;-65
2024/03/03 11:06:08;;;;;;;10.18;4.47;;;6.20;99.90;;;;;;5040192;28;20037;-66
2024/03/03 11:08:34;;;;;;;7.82;4.43;;;6.30;99.90;;;;;;5048545;28;20065;-66
2024/03/03 11:11:01;;;;;;;7.80;3.92;;;6.30;99.90;;;;;;5035110;28;20045;-65
2024/03/03 11:13:29;;;;;;;7.72;4.05;;;6.40;99.90;;;;;;5034953;28;20072;-65
2024/03/03 11:15:55;;;;;;;6.70;4.20;;;6.40;99.90;;;;;;5053185;28;20051;-65
2024/03/03 11:18:24;;;;;;;7.78;4.22;;;6.50;99.90;;;;;;5049545;28;20046;-65
2024/03/03 11:20:50;;;;;;;5.05;3.78;;;6.60;99.90;;;;;;5052561;28;20048;-66
2024/03/03 11:23:18;;;;;;;6.78;3.65;;;6.70;99.90;;;;;;5055019;28;20048;-65
2024/03/03 11:25:44;;;;;;;5.75;3.38;;;6.80;99.90;;;;;;5053434;28;20059;-65
2024/03/03 11:28:11;;;;;;;5.68;3.55;;;6.80;99.90;;;;;;5055093;28;20032;-66
2024/03/03 11:30:40;;;;;;;6.28;3.40;;;7.00;99.90;;;;;;5053587;28;20037;-66
2024/03/03 11:33:07;;;;;;;7.47;3.25;;;7.10;99.90;;;;;;5054564;28;20049;-66
2024/03/03 11:35:34;;;;;;;10.23;3.45;;;7.20;99.90;;;;;;5053575;28;20135;-65
2024/03/03 11:38:01;;;;;;;5.80;3.58;;;7.30;99.90;;;;;;5053738;28;20094;-65
2024/03/03 11:40:28;;;;;;;5.63;2.83;;;7.30;99.90;;;;;;5054970;28;20402;-65
2024/03/03 11:42:55;;;;;;;8.68;3.15;;;7.30;99.90;;;;;;5053780;28;20037;-65
2024/03/03 11:45:22;;;;;;;4.82;3.15;;;7.30;99.90;;;;;;5054328;28;20059;-65
2024/03/03 11:47:49;;;;;;;5.90;2.60;;;7.40;99.90;;;;;;5053185;28;20037;-65
2024/03/03 11:50:16;;;;;;;7.93;2.92;;;7.40;99.90;;;;;;5054175;28;20055;-65
2024/03/03 11:52:43;;;;;;;7.03;2.63;;;7.50;99.90;;;;;;5054509;28;20099;-65
2024/03/03 11:55:10;;;;;;;7.22;2.75;;;7.50;99.90;;;;;;5051725;28;20425;-65
2024/03/03 11:57:37;;;;;;;5.65;2.85;;;7.50;99.90;;;;;;5054178;28;20044;-65
2024/03/03 12:00:12;;;;;;;4.57;2.60;;;7.50;99.90;;;;;;5052872;28;20052;-65
2024/03/03 12:02:42;;;;;;;7.83;2.77;;;7.60;99.90;;;;;;5054921;28;20090;-66
2024/03/03 12:05:08;;;;;;;6.68;3.00;;;7.70;99.90;;;;;;5053137;28;20095;-66
2024/03/03 12:07:35;;;;;;;9.52;2.60;;;7.70;99.90;;;;;;5054114;28;20486;-65
2024/03/03 12:10:03;;;;;;;7.55;2.85;;;7.70;99.90;;;;;;5054167;28;20037;-65
2024/03/03 12:12:30;;;;;;;4.93;2.25;;;7.70;99.90;;;;;;5053150;28;20052;-65
2024/03/03 12:14:57;;;;;;;4.72;2.63;;;7.70;99.90;;;;;;5054210;28;20057;-65
2024/03/03 12:17:24;;;;;;;7.07;2.95;;;7.70;99.90;;;;;;5054138;28;20490;-64
2024/03/03 12:19:53;;;;;;;6.18;2.55;;;7.70;99.90;;;;;;5052748;28;20068;-65
2024/03/03 12:22:20;;;;;;;7.22;2.67;;;7.70;99.90;;;;;;5053957;28;20040;-65
2024/03/03 12:24:47;;;;;;;7.20;2.60;;;7.70;99.90;;;;;;5052403;28;20439;-64
2024/03/03 12:27:14;;;;;;;5.50;2.55;;;7.70;99.90;;;;;;5053996;28;20052;-65
2024/03/03 12:29:41;;;;;;;7.75;2.50;;;7.60;99.90;;;;;;5054219;28;20370;-66
2024/03/03 12:32:07;;;;;;;5.55;2.45;;;7.60;99.90;;;;;;5052752;28;20041;-65
2024/03/03 12:34:34;;;;;;;5.43;2.15;;;7.70;99.90;;;;;;5053996;28;20080;-65
2024/03/03 12:37:01;;;;;;;6.53;2.65;;;7.60;99.90;;;;;;5052873;28;20037;-65
2024/03/03 12:39:28;;;;;;;3.20;1.98;;;7.70;99.90;;;;;;5053681;28;20102;-65
2024/03/03 12:41:55;;;;;;;4.38;2.05;;;7.60;99.90;;;;;;5053511;28;20040;-66
2024/03/03 12:44:21;;;;;;;4.93;2.10;;;7.70;99.90;;;;;;5052367;28;20045;-66
2024/03/03 12:46:48;;;;;;;5.50;2.00;;;7.70;99.90;;;;;;5053934;28;20040;-65
2024/03/03 12:49:15;;;;;;;4.82;2.00;;;7.80;99.90;;;;;;5052535;28;20425;-65
2024/03/03 12:51:42;;;;;;;5.35;1.67;;;7.80;99.90;;;;;;5053099;28;20079;-65
2024/03/03 12:54:09;;;;;;;4.07;1.80;;;7.80;99.90;;;;;;5052814;28;20437;-63
2024/03/03 12:56:36;;;;;;;3.90;2.05;;;7.80;99.90;;;;;;5053307;28;20045;-63